Time;durP1;ratioP1;P1;durP2;ratioP2;P2;SDS_P1;SDS_P2;PMS_P1;PMS_P2;Temp;Humidity;BMP_temperature;BMP_pressure;BME280_temperature;BME280_humidity;BME280_pressure;Samples;Min_cycle;Max_cycle;Signal;HPM_P1;HPM_P2
2023/02/18 00:01:39;;;;;;;24.50;16.77;;;;;;;10.95;100.00;102120.63;5112801;27;20487;-70
2023/02/18 00:04:08;;;;;;;25.92;17.13;;;;;;;10.94;100.00;102115.41;5114556;28;20043;-69
2023/02/18 00:06:37;;;;;;;24.48;17.48;;;;;;;10.93;100.00;102103.69;5102556;28;20054;-71
2023/02/18 00:09:05;;;;;;;28.80;17.88;;;;;;;10.94;100.00;102099.03;5104884;28;20120;-71
2023/02/18 00:11:35;;;;;;;21.83;16.17;;;;;;;10.94;100.00;102099.88;5113012;28;20049;-70
2023/02/18 00:14:04;;;;;;;21.02;16.08;;;;;;;10.93;100.00;102092.75;5115183;28;20051;-70
2023/02/18 00:16:32;;;;;;;31.45;18.83;;;;;;;10.93;100.00;102098.22;5114418;28;20411;-70
2023/02/18 00:19:02;;;;;;;23.85;16.73;;;;;;;10.93;100.00;102091.94;5114963;27;20079;-71
2023/02/18 00:21:31;;;;;;;28.05;18.73;;;;;;;10.92;100.00;102096.56;5113519;28;20040;-71
2023/02/18 00:23:59;;;;;;;25.42;18.65;;;;;;;10.93;100.00;102100.94;5114564;28;20523;-70
2023/02/18 00:26:27;;;;;;;24.70;17.42;;;;;;;10.92;100.00;102095.72;5113767;28;20381;-70
2023/02/18 00:28:55;;;;;;;29.05;18.95;;;;;;;10.94;100.00;102094.41;5111217;28;20479;-70
2023/02/18 00:31:31;;;;;;;24.77;16.48;;;;;;;10.95;100.00;102084.34;5076957;28;20050;-71
2023/02/18 00:34:01;;;;;;;26.55;17.95;;;;;;;10.95;100.00;102085.19;5100350;28;20044;-70
2023/02/18 00:36:29;;;;;;;25.20;17.75;;;;;;;10.97;100.00;102084.94;5092025;28;20059;-70
2023/02/18 00:39:00;;;;;;;31.98;19.05;;;;;;;10.96;100.00;102072.38;5092865;28;20488;-71
2023/02/18 00:41:28;;;;;;;28.55;19.02;;;;;;;10.97;100.00;102074.88;5076684;28;20048;-70
2023/02/18 00:43:56;;;;;;;26.58;18.75;;;;;;;10.96;100.00;102070.47;5094382;28;20044;-69
2023/02/18 00:46:24;;;;;;;26.80;17.08;;;;;;;10.97;100.00;102061.22;5077008;28;20044;-71
2023/02/18 00:48:53;;;;;;;29.85;18.88;;;;;;;10.95;100.00;102062.53;5094421;28;20079;-70
2023/02/18 00:51:22;;;;;;;25.98;19.52;;;;;;;10.95;100.00;102047.00;5099471;28;20082;-70
2023/02/18 00:53:49;;;;;;;28.83;20.88;;;;;;;10.95;100.00;102057.91;5101744;28;20078;-70
2023/02/18 00:56:18;;;;;;;28.15;21.55;;;;;;;10.95;100.00;102060.63;5082610;28;20055;-70
2023/02/18 00:58:46;;;;;;;33.08;21.17;;;;;;;10.97;100.00;102057.69;5101998;28;20051;-70
2023/02/18 01:01:14;;;;;;;30.48;22.67;;;;;;;10.96;100.00;102051.38;5084645;28;20051;-70
2023/02/18 01:03:42;;;;;;;27.08;20.73;;;;;;;10.97;100.00;102060.41;5097591;28;20070;-70
2023/02/18 01:06:11;;;;;;;29.95;20.65;;;;;;;10.97;100.00;102050.31;5094626;28;20075;-71
2023/02/18 01:08:40;;;;;;;28.33;21.70;;;;;;;10.96;100.00;102045.91;5114967;28;20047;-70
2023/02/18 01:11:10;;;;;;;28.52;20.98;;;;;;;10.97;100.00;102039.41;5097054;28;20063;-71
2023/02/18 01:13:38;;;;;;;26.80;20.85;;;;;;;10.97;100.00;102033.97;5115933;28;20078;-69
2023/02/18 01:16:07;;;;;;;27.35;20.30;;;;;;;10.97;100.00;102033.97;5140817;28;20066;-63
2023/02/18 01:18:36;;;;;;;30.40;21.40;;;;;;;10.97;100.00;102035.88;5102862;28;20051;-68
2023/02/18 01:21:07;;;;;;;29.23;21.23;;;;;;;10.95;100.00;102025.19;5136480;28;20108;-67
2023/02/18 01:23:40;;;;;;;29.45;22.08;;;;;;;10.95;100.00;102033.38;5093834;28;20054;-69
2023/02/18 01:26:09;;;;;;;29.45;21.20;;;;;;;10.97;100.00;102031.22;5134085;27;20069;-64
2023/02/18 01:28:39;;;;;;;31.75;23.98;;;;;;;10.97;100.00;102027.69;5127702;28;20491;-70
2023/02/18 01:31:09;;;;;;;24.58;18.15;;;;;;;10.96;100.00;102021.38;5101125;28;20063;-70
2023/02/18 01:33:37;;;;;;;35.70;27.10;;;;;;;10.97;100.00;102027.69;5117390;28;20048;-70
2023/02/18 01:36:05;;;;;;;30.98;24.40;;;;;;;10.97;100.00;102025.78;5098339;28;20044;-70
2023/02/18 01:38:34;;;;;;;33.50;26.35;;;;;;;10.97;100.00;102020.31;5097228;28;20105;-70
2023/02/18 01:41:02;;;;;;;34.42;27.45;;;;;;;10.97;100.00;102023.06;5085845;28;20047;-70
2023/02/18 01:43:30;;;;;;;37.28;30.02;;;;;;;10.96;100.00;102018.66;5082460;28;20063;-70
2023/02/18 01:46:00;;;;;;;40.42;29.38;;;;;;;10.97;100.00;102024.97;5096909;28;20071;-70
2023/02/18 01:48:37;;;;;;;38.58;30.45;;;;;;;10.95;100.00;102033.38;5096773;28;20043;-70
2023/02/18 01:51:39;;;;;;;32.45;24.90;;;;;;;10.96;100.00;102026.84;5111171;28;20084;-70
2023/02/18 01:54:12;;;;;;;36.33;28.83;;;;;;;10.97;100.00;102022.22;5095408;28;20095;-70
2023/02/18 01:56:49;;;;;;;38.45;28.92;;;;;;;10.94;100.00;102022.69;5095930;28;20044;-70
2023/02/18 01:59:20;;;;;;;41.33;30.63;;;;;;;10.93;100.00;102016.41;5089549;28;20128;-71
2023/02/18 02:01:48;;;;;;;38.42;28.75;;;;;;;10.94;100.00;102012.59;5085303;28;20518;-70
2023/02/18 02:04:36;;;;;;;37.58;28.88;;;;;;;10.91;100.00;102015.81;5112442;28;20047;-70
2023/02/18 02:07:04;;;;;;;32.17;24.48;;;;;;;10.93;100.00;102018.31;5115722;28;20052;-70
2023/02/18 02:09:33;;;;;;;38.95;28.30;;;;;;;10.93;100.00;102010.97;5115734;28;20040;-71
2023/02/18 02:12:20;;;;;;;37.60;28.50;;;;;;;10.91;100.00;102007.63;5115618;28;20503;-70
2023/02/18 02:15:22;;;;;;;40.95;29.65;;;;;;;10.89;100.00;102004.31;5110299;27;20487;-70
2023/02/18 02:17:55;;;;;;;39.80;29.17;;;;;;;10.86;100.00;102002.09;5095267;28;20048;-70
2023/02/18 02:20:46;;;;;;;39.53;28.73;;;;;;;10.85;100.00;101995.00;5101041;28;20044;-70
2023/02/18 02:23:45;;;;;;;40.53;28.90;;;;;;;10.87;100.00;101995.56;5067066;28;20408;-70
2023/02/18 02:26:53;;;;;;;41.38;28.40;;;;;;;10.86;100.00;101999.34;5094713;28;20126;-70
2023/02/18 02:29:47;;;;;;;37.80;28.13;;;;;;;10.84;100.00;101983.22;5096504;28;20051;-70
2023/02/18 02:32:46;;;;;;;37.35;26.13;;;;;;;10.84;100.00;101976.94;5112814;27;20051;-70
2023/02/18 02:35:25;;;;;;;38.08;27.50;;;;;;;10.81;100.00;101974.72;5104552;28;20134;-69
2023/02/18 02:38:01;;;;;;;37.17;26.02;;;;;;;10.82;100.00;101965.47;5094302;28;20467;-69
2023/02/18 02:40:56;;;;;;;39.20;27.15;;;;;;;10.82;100.00;101965.47;5095096;28;20549;-70
2023/02/18 02:43:51;;;;;;;36.17;26.60;;;;;;;10.81;100.00;101963.81;5094989;28;20048;-69
2023/02/18 02:46:58;;;;;;;36.88;26.60;;;;;;;10.80;100.00;101957.53;5078795;28;20446;-69
2023/02/18 02:49:47;;;;;;;30.85;24.08;;;;;;;10.83;100.00;101939.88;5027422;28;20051;-70
2023/02/18 02:52:23;;;;;;;31.63;21.08;;;;;;;10.88;100.00;101927.16;5074842;28;20139;-70
2023/02/18 02:54:52;;;;;;;30.95;23.40;;;;;;;10.86;100.00;101928.47;5095013;28;20105;-70
2023/02/18 02:57:20;;;;;;;26.38;20.00;;;;;;;10.88;100.00;101923.59;5080530;28;20495;-70
2023/02/18 03:00:09;;;;;;;28.90;22.13;;;;;;;10.85;100.00;101926.81;5099522;28;20040;-70
2023/02/18 03:02:46;;;;;;;28.90;21.90;;;;;;;10.84;100.00;101925.16;5098049;28;20059;-70
2023/02/18 03:05:42;;;;;;;28.08;21.27;;;;;;;10.85;100.00;101910.47;5105678;27;20044;-70
2023/02/18 03:08:10;;;;;;;27.85;20.20;;;;;;;10.80;100.00;101903.00;5096489;28;20112;-69
2023/02/18 03:11:12;;;;;;;24.77;19.75;;;;;;;10.77;100.00;101903.47;5079736;28;20047;-70
2023/02/18 03:14:05;;;;;;;24.40;18.13;;;;;;;10.78;100.00;101890.69;5079075;28;20048;-70
2023/02/18 03:16:51;;;;;;;23.88;17.52;;;;;;;10.78;100.00;101890.69;5080483;28;20079;-69
2023/02/18 03:19:27;;;;;;;17.52;11.90;;;;;;;10.80;100.00;101874.91;5096006;28;20423;-70
2023/02/18 03:22:03;;;;;;;22.00;16.75;;;;;;;10.77;100.00;101870.75;5078562;28;20051;-70
2023/02/18 03:24:41;;;;;;;19.83;15.07;;;;;;;10.78;100.00;101868.88;5082806;28;20445;-70
2023/02/18 03:27:22;;;;;;;19.95;15.13;;;;;;;10.77;100.00;101861.75;5116761;28;20039;-70
2023/02/18 03:30:01;;;;;;;19.52;14.45;;;;;;;10.79;100.00;101865.06;5114600;28;20063;-69
2023/02/18 03:32:31;;;;;;;16.67;11.10;;;;;;;10.77;100.00;101857.13;5116097;28;20402;-70
2023/02/18 03:35:08;;;;;;;15.15;10.82;;;;;;;10.81;100.00;101854.75;5099557;28;20440;-69
2023/02/18 03:37:41;;;;;;;13.82;9.90;;;;;;;10.79;100.00;101854.19;5107590;28;20403;-70
2023/02/18 03:40:10;;;;;;;14.18;10.02;;;;;;;10.77;100.00;101848.13;5115618;28;20453;-71
2023/02/18 03:42:38;;;;;;;13.73;9.32;;;;;;;10.73;100.00;101836.09;5098688;28;20040;-69
2023/02/18 03:45:07;;;;;;;10.15;7.13;;;;;;;10.73;100.00;101838.81;5116005;28;20421;-71
2023/02/18 03:47:34;;;;;;;11.60;8.07;;;;;;;10.74;100.00;101840.44;5076718;28;20131;-70
2023/02/18 03:50:02;;;;;;;10.13;7.38;;;;;;;10.73;100.00;101827.91;5063332;28;20043;-70
2023/02/18 03:52:31;;;;;;;9.68;7.25;;;;;;;10.70;100.00;101826.47;5078497;28;20406;-70
2023/02/18 03:54:59;;;;;;;9.27;6.95;;;;;;;10.71;100.00;101827.31;5112413;28;20044;-69
2023/02/18 03:57:26;;;;;;;9.13;6.60;;;;;;;10.70;100.00;101821.03;5114866;28;20040;-70
2023/02/18 03:59:54;;;;;;;8.60;6.25;;;;;;;10.75;100.00;101817.56;5116490;28;20119;-70
2023/02/18 04:02:22;;;;;;;8.85;6.25;;;;;;;10.74;100.00;101821.38;5115030;28;20040;-70
2023/02/18 04:04:49;;;;;;;8.68;6.00;;;;;;;10.70;100.00;101809.28;5116822;27;20489;-71
2023/02/18 04:07:17;;;;;;;7.57;5.75;;;;;;;10.69;100.00;101818.56;5114007;28;20040;-70
2023/02/18 04:09:45;;;;;;;7.50;5.30;;;;;;;10.70;100.00;101806.56;5114676;28;20082;-70
2023/02/18 04:12:13;;;;;;;7.60;5.53;;;;;;;10.69;100.00;101808.47;5115592;28;20442;-71
2023/02/18 04:14:40;;;;;;;9.20;5.40;;;;;;;10.68;100.00;101805.97;5115312;28;20413;-71
2023/02/18 04:17:08;;;;;;;6.53;4.75;;;;;;;10.68;100.00;101795.06;5099256;28;20407;-70
2023/02/18 04:19:36;;;;;;;8.75;4.90;;;;;;;10.69;100.00;101796.75;5096278;28;20040;-70
2023/02/18 04:22:04;;;;;;;6.90;4.88;;;;;;;10.64;100.00;101790.13;5061691;28;20447;-70
2023/02/18 04:24:32;;;;;;;5.88;4.30;;;;;;;10.68;100.00;101781.44;5102605;27;20058;-70
2023/02/18 04:26:59;;;;;;;6.43;4.70;;;;;;;10.65;100.00;101780.91;5096064;28;20134;-71
2023/02/18 04:29:27;;;;;;;6.40;4.40;;;;;;;10.70;100.00;101785.59;5095483;28;20056;-70
2023/02/18 04:31:55;;;;;;;7.35;5.00;;;;;;;10.66;100.00;101777.09;5094477;28;20086;-71
2023/02/18 04:34:22;;;;;;;6.80;4.75;;;;;;;10.64;100.00;101787.41;5095085;28;20044;-70
2023/02/18 04:36:50;;;;;;;5.57;4.03;;;;;;;10.66;100.00;101782.53;5109234;28;20143;-70
2023/02/18 04:39:18;;;;;;;5.75;3.92;;;;;;;10.67;100.00;101783.34;5113807;28;20043;-70
2023/02/18 04:41:45;;;;;;;5.43;4.22;;;;;;;10.64;100.00;101786.59;5114234;28;20071;-71
2023/02/18 04:44:13;;;;;;;4.70;3.28;;;;;;;10.62;100.00;101781.38;5106584;28;20496;-70
2023/02/18 04:46:41;;;;;;;5.43;3.75;;;;;;;10.64;100.00;101776.50;5095582;28;20052;-71
2023/02/18 04:49:09;;;;;;;5.20;4.03;;;;;;;10.60;100.00;101780.78;5082074;28;20052;-70
2023/02/18 04:51:36;;;;;;;5.28;3.80;;;;;;;10.60;100.00;101777.22;5100547;28;20134;-70
2023/02/18 04:54:05;;;;;;;5.47;3.72;;;;;;;10.58;100.00;101779.38;5119163;27;20051;-70
2023/02/18 04:56:32;;;;;;;4.97;3.65;;;;;;;10.57;100.00;101773.09;5107697;28;20116;-71
2023/02/18 04:59:00;;;;;;;3.80;3.38;;;;;;;10.56;100.00;101776.91;5106280;27;20047;-70
2023/02/18 05:01:28;;;;;;;5.18;3.75;;;;;;;10.60;100.00;101771.78;5121359;27;20053;-71
2023/02/18 05:03:55;;;;;;;5.20;4.15;;;;;;;10.55;100.00;101774.41;5123973;27;20131;-67
2023/02/18 05:06:23;;;;;;;6.78;4.30;;;;;;;10.51;100.00;101760.47;5115455;28;20058;-63
2023/02/18 05:08:51;;;;;;;5.32;3.58;;;;;;;10.55;100.00;101763.50;5114896;28;20058;-68
2023/02/18 05:11:18;;;;;;;4.85;3.42;;;;;;;10.54;100.00;101757.25;5118698;27;20044;-65
2023/02/18 05:13:46;;;;;;;5.75;3.95;;;;;;;10.56;100.00;101755.09;5110247;28;20105;-68
2023/02/18 05:16:14;;;;;;;5.07;4.05;;;;;;;10.57;100.00;101751.28;5128279;27;20111;-64
2023/02/18 05:18:42;;;;;;;5.15;4.30;;;;;;;10.56;100.00;101751.53;5107649;28;20052;-69
2023/02/18 05:21:11;;;;;;;6.38;4.03;;;;;;;10.55;100.00;101753.44;5128991;27;20050;-70
2023/02/18 05:23:38;;;;;;;5.75;4.38;;;;;;;10.55;100.00;101742.53;5121915;28;20052;-70
2023/02/18 05:26:07;;;;;;;5.22;3.88;;;;;;;10.54;100.00;101743.63;5112667;27;20056;-70
2023/02/18 05:28:35;;;;;;;4.78;3.90;;;;;;;10.56;100.00;101738.75;5121288;27;20044;-70
2023/02/18 05:31:03;;;;;;;6.05;4.00;;;;;;;10.52;100.00;101737.59;5103827;28;20543;-70
2023/02/18 05:33:31;;;;;;;5.22;4.13;;;;;;;10.48;100.00;101741.84;5121748;28;20078;-70
2023/02/18 05:35:59;;;;;;;5.60;3.72;;;;;;;10.48;100.00;101741.84;5107109;28;20035;-70
2023/02/18 05:38:27;;;;;;;5.65;3.90;;;;;;;10.50;100.00;101737.00;5083156;28;20380;-70
2023/02/18 05:40:55;;;;;;;5.75;4.03;;;;;;;10.48;100.00;101744.59;5101673;27;20485;-70
2023/02/18 05:43:23;;;;;;;5.32;4.03;;;;;;;10.47;100.00;101742.94;5100401;28;20051;-70
2023/02/18 05:45:50;;;;;;;5.10;3.97;;;;;;;10.47;100.00;101739.41;5067852;28;20075;-70
2023/02/18 05:48:18;;;;;;;5.20;4.00;;;;;;;10.50;100.00;101738.91;5100657;28;20119;-70
2023/02/18 05:50:46;;;;;;;7.05;4.07;;;;;;;10.48;100.00;101730.97;5100847;28;20047;-69
2023/02/18 05:53:13;;;;;;;4.43;3.90;;;;;;;10.46;100.00;101733.09;5083657;28;20108;-70
2023/02/18 05:55:44;;;;;;;4.95;3.85;;;;;;;10.47;100.00;101728.50;5100106;28;20358;-69
2023/02/18 05:58:12;;;;;;;4.15;3.45;;;;;;;10.45;100.00;101710.47;5083619;28;20159;-70
2023/02/18 06:00:40;;;;;;;5.05;3.70;;;;;;;10.44;100.00;101708.03;5108623;28;20495;-70
2023/02/18 06:03:07;;;;;;;4.60;3.70;;;;;;;10.42;100.00;101708.25;5118753;28;20539;-70
2023/02/18 06:05:35;;;;;;;5.75;4.07;;;;;;;10.39;100.00;101711.47;5083664;28;20042;-70
2023/02/18 06:08:03;;;;;;;5.43;4.10;;;;;;;10.39;100.00;101716.94;5118047;28;20043;-70
2023/02/18 06:10:31;;;;;;;6.13;3.92;;;;;;;10.40;100.00;101723.19;5112369;27;20122;-70
2023/02/18 06:13:01;;;;;;;5.07;3.97;;;;;;;10.41;100.00;101716.66;5098061;28;20056;-69
2023/02/18 06:15:29;;;;;;;4.88;3.90;;;;;;;10.40;100.00;101726.75;5090644;28;20499;-69
2023/02/18 06:17:56;;;;;;;5.28;4.15;;;;;;;10.39;100.00;101718.81;5079424;28;20060;-69
2023/02/18 06:20:24;;;;;;;4.93;3.90;;;;;;;10.38;100.00;101709.00;5097908;28;20122;-70
2023/02/18 06:22:52;;;;;;;5.25;4.20;;;;;;;10.37;100.00;101697.28;5079875;28;20101;-70
2023/02/18 06:25:20;;;;;;;6.13;3.67;;;;;;;10.38;100.00;101703.53;5099683;28;20044;-70
2023/02/18 06:27:47;;;;;;;4.63;4.00;;;;;;;10.38;100.00;101709.81;5102718;27;20142;-70
2023/02/18 06:30:15;;;;;;;4.80;4.00;;;;;;;10.38;100.00;101700.81;5127509;27;20044;-69
2023/02/18 06:32:43;;;;;;;5.47;4.22;;;;;;;10.35;100.00;101704.03;5119410;28;20040;-70
2023/02/18 06:35:11;;;;;;;5.97;4.20;;;;;;;10.36;100.00;101702.97;5104008;28;20072;-70
2023/02/18 06:37:39;;;;;;;5.22;4.20;;;;;;;10.38;100.00;101711.72;5099667;28;20048;-70
2023/02/18 06:40:07;;;;;;;6.05;4.60;;;;;;;10.36;100.00;101702.97;5082045;28;20105;-70
2023/02/18 06:42:35;;;;;;;5.90;4.57;;;;;;;10.37;100.00;101694.56;5099357;28;20048;-70
2023/02/18 06:45:05;;;;;;;6.07;4.72;;;;;;;10.37;100.00;101701.91;5100251;27;20062;-70
2023/02/18 06:47:33;;;;;;;6.93;5.18;;;;;;;10.38;100.00;101714.44;5116990;28;20050;-69
2023/02/18 06:50:02;;;;;;;8.05;5.40;;;;;;;10.36;100.00;101711.94;5112741;27;20092;-70
2023/02/18 06:52:32;;;;;;;7.38;5.65;;;;;;;10.36;100.00;101708.41;5097814;27;20085;-69
2023/02/18 06:55:00;;;;;;;7.47;5.63;;;;;;;10.36;100.00;101703.78;5092055;28;20100;-69
2023/02/18 06:57:31;;;;;;;7.80;6.03;;;;;;;10.36;100.00;101708.41;5117662;28;20115;-69
2023/02/18 07:00:00;;;;;;;8.43;6.20;;;;;;;10.37;100.00;101710.91;5116315;28;20445;-69
2023/02/18 07:02:28;;;;;;;7.72;6.22;;;;;;;10.35;100.00;101715.75;5080635;28;20066;-70
2023/02/18 07:04:56;;;;;;;7.88;6.30;;;;;;;10.33;100.00;101723.34;5098988;28;20409;-69
2023/02/18 07:07:24;;;;;;;9.25;6.07;;;;;;;10.32;100.00;101716.25;5104431;28;20048;-69
2023/02/18 07:09:52;;;;;;;7.43;5.75;;;;;;;10.33;100.00;101725.25;5116427;28;20419;-69
2023/02/18 07:12:20;;;;;;;8.80;6.38;;;;;;;10.33;100.00;101722.53;5099343;28;20585;-70
2023/02/18 07:14:47;;;;;;;8.00;5.93;;;;;;;10.36;100.00;101722.03;5117893;28;20118;-70
2023/02/18 07:17:15;;;;;;;8.73;6.40;;;;;;;10.36;100.00;101716.56;5117106;27;20510;-69
2023/02/18 07:19:43;;;;;;;8.60;6.90;;;;;;;10.32;100.00;101709.94;5120116;28;20052;-70
2023/02/18 07:22:11;;;;;;;7.15;5.75;;;;;;;10.31;100.00;101720.03;5119354;28;20055;-69
2023/02/18 07:24:39;;;;;;;5.78;4.65;;;;;;;10.23;100.00;101723.94;5116200;28;20057;-69
2023/02/18 07:27:07;;;;;;;5.00;3.88;;;;;;;10.24;100.00;101733.75;5084155;28;20163;-70
2023/02/18 07:29:35;;;;;;;6.25;4.63;;;;;;;10.21;100.00;101725.25;5099101;28;20040;-70
2023/02/18 07:32:03;;;;;;;6.47;4.57;;;;;;;10.20;100.00;101727.16;5096785;28;20134;-69
2023/02/18 07:34:30;;;;;;;5.70;4.00;;;;;;;10.16;100.00;101734.16;5097103;28;20107;-67
2023/02/18 07:36:58;;;;;;;6.80;3.80;;;;;;;10.11;100.00;101741.41;5109324;27;20067;-68
2023/02/18 07:39:25;;;;;;;5.65;3.25;;;;;;;10.14;100.00;101738.19;5115354;28;20047;-67
2023/02/18 07:41:53;;;;;;;6.93;3.20;;;;;;;10.10;100.00;101740.59;5114093;28;20380;-67
2023/02/18 07:44:26;;;;;;;5.60;3.30;;;;;;;10.04;100.00;101744.28;5114078;28;20044;-70
2023/02/18 07:46:54;;;;;;;7.57;3.55;;;;;;;10.02;100.00;101760.00;5113883;28;20544;-71
2023/02/18 07:49:21;;;;;;;8.23;3.50;;;;;;;10.02;100.00;101749.13;5113419;28;20052;-70
2023/02/18 07:51:50;;;;;;;6.68;3.20;;;;;;;10.08;100.00;101748.16;5114136;28;20084;-70
2023/02/18 07:54:18;;;;;;;7.95;3.20;;;;;;;10.05;100.00;101754.06;5096853;28;20086;-70
2023/02/18 07:56:45;;;;;;;7.40;3.40;;;;;;;10.03;100.00;101750.78;5112502;28;20051;-70
2023/02/18 07:59:13;;;;;;;8.40;3.85;;;;;;;10.03;100.00;101746.19;5113781;28;20058;-70
2023/02/18 08:01:41;;;;;;;11.60;3.70;;;;;;;10.05;100.00;101767.69;5114855;28;20047;-70
2023/02/18 08:04:11;;;;;;;11.85;3.78;;;;;;;9.99;100.00;101758.59;5113857;28;20074;-69
2023/02/18 08:06:41;;;;;;;10.68;3.80;;;;;;;10.01;100.00;101751.03;5112545;28;20047;-69
2023/02/18 08:09:09;;;;;;;10.48;3.97;;;;;;;10.07;100.00;101749.22;5114593;28;20123;-70
2023/02/18 08:11:37;;;;;;;12.57;4.60;;;;;;;10.11;100.00;101747.69;5110959;28;20135;-70
2023/02/18 08:14:05;;;;;;;11.27;3.70;;;;;;;10.16;100.00;101745.06;5094926;28;20467;-69
2023/02/18 08:16:33;;;;;;;10.40;4.25;;;;;;;10.13;100.00;101756.44;5092317;28;20048;-70
2023/02/18 08:19:02;;;;;;;11.27;4.00;;;;;;;10.09;100.00;101755.25;5115114;28;20075;-69
2023/02/18 08:21:30;;;;;;;9.98;4.20;;;;;;;10.12;100.00;101749.31;5105763;28;20065;-70
2023/02/18 08:23:59;;;;;;;9.95;3.90;;;;;;;10.13;100.00;101745.53;5107865;28;20491;-69
2023/02/18 08:26:27;;;;;;;12.05;4.50;;;;;;;10.20;100.00;101746.22;5114118;28;20082;-70
2023/02/18 08:28:55;;;;;;;13.50;4.75;;;;;;;10.14;100.00;101744.47;5085015;28;20051;-69
2023/02/18 08:31:25;;;;;;;12.52;4.85;;;;;;;10.08;100.00;101748.16;5096011;28;20514;-69
2023/02/18 08:33:54;;;;;;;14.35;4.78;;;;;;;10.03;100.00;101745.34;5096606;28;20097;-69
2023/02/18 08:36:22;;;;;;;13.68;4.88;;;;;;;10.01;100.00;101755.66;5111447;28;20118;-69
2023/02/18 08:38:50;;;;;;;14.57;4.63;;;;;;;10.01;100.00;101745.59;5080010;28;20039;-69
2023/02/18 08:41:18;;;;;;;14.35;4.43;;;;;;;10.07;100.00;101746.50;5113564;28;20043;-69
2023/02/18 08:43:46;;;;;;;16.10;4.65;;;;;;;10.16;100.00;101755.13;5114610;28;20051;-69
2023/02/18 08:46:14;;;;;;;14.88;4.47;;;;;;;10.15;100.00;101746.13;5104694;28;20411;-69
2023/02/18 08:48:43;;;;;;;16.75;4.97;;;;;;;10.13;100.00;101756.44;5093353;28;20122;-69
2023/02/18 08:51:20;;;;;;;16.85;5.35;;;;;;;10.14;100.00;101755.34;5068375;28;20073;-70
2023/02/18 08:53:48;;;;;;;;;;;;;;;10.16;100.00;101761.41;5095071;28;20040;-68
2023/02/18 08:56:16;;;;;;;16.98;4.57;;;;;;;10.17;100.00;101762.22;5117901;28;19927;-65
2023/02/18 08:58:44;;;;;;;16.55;4.75;;;;;;;10.19;100.00;101760.06;5131684;28;20091;-68
2023/02/18 09:01:12;;;;;;;30.20;7.00;;;;;;;10.20;100.00;101762.56;5116205;28;20047;-69
2023/02/18 09:03:40;;;;;;;16.85;4.85;;;;;;;10.19;100.00;101758.19;5121229;28;20069;-67
2023/02/18 09:06:08;;;;;;;17.42;4.90;;;;;;;10.14;100.00;101759.97;5108264;28;20070;-64
2023/02/18 09:08:36;;;;;;;17.83;5.43;;;;;;;10.07;100.00;101749.22;5109070;28;20466;-68
2023/02/18 09:11:04;;;;;;;15.77;4.93;;;;;;;10.03;100.00;101756.25;5096235;28;20040;-69
2023/02/18 09:13:32;;;;;;;17.73;5.18;;;;;;;10.00;100.00;101767.59;5097000;28;20047;-72
2023/02/18 09:16:02;;;;;;;15.48;4.38;;;;;;;9.98;100.00;101761.56;5082663;28;20036;-68
2023/02/18 09:18:30;;;;;;;22.65;5.22;;;;;;;9.96;100.00;101761.81;5113722;28;20443;-69
2023/02/18 09:20:59;;;;;;;14.52;4.70;;;;;;;9.94;100.00;101753.06;5095905;28;20058;-68
2023/02/18 09:23:28;;;;;;;18.17;5.07;;;;;;;9.89;100.00;101752.97;5114272;28;20047;-69
2023/02/18 09:25:56;;;;;;;17.17;5.20;;;;;;;9.89;100.00;101750.25;5080776;28;20089;-69
2023/02/18 09:28:24;;;;;;;13.45;4.78;;;;;;;9.90;100.00;101753.78;5093122;28;20052;-70
2023/02/18 09:30:54;;;;;;;22.42;4.80;;;;;;;9.88;100.00;101753.19;5092077;28;20389;-69
2023/02/18 09:33:22;;;;;;;17.30;4.80;;;;;;;9.86;100.00;101747.16;5092468;28;20048;-68
2023/02/18 09:35:49;;;;;;;17.52;5.30;;;;;;;9.88;100.00;101758.63;5106685;28;20484;-68
2023/02/18 09:38:17;;;;;;;17.88;4.63;;;;;;;9.89;100.00;101743.97;5113987;28;20055;-68
2023/02/18 09:40:48;;;;;;;16.90;5.68;;;;;;;9.86;100.00;101766.22;5117105;28;20055;-68
2023/02/18 09:43:25;;;;;;;15.68;4.75;;;;;;;9.85;100.00;101759.13;5098851;28;20455;-67
2023/02/18 09:45:53;;;;;;;11.25;4.00;;;;;;;9.85;100.00;101759.13;5096662;28;20130;-68
2023/02/18 09:48:26;;;;;;;15.05;4.15;;;;;;;9.87;100.00;101765.16;5117203;28;20164;-69
2023/02/18 09:50:54;;;;;;;14.65;4.30;;;;;;;9.88;100.00;101764.91;5105268;28;20055;-68
2023/02/18 09:53:23;;;;;;;16.13;4.65;;;;;;;9.85;100.00;101761.84;5095267;28;20047;-68
2023/02/18 09:55:53;;;;;;;16.08;4.10;;;;;;;9.86;100.00;101774.38;5098293;27;20048;-68
2023/02/18 09:58:31;;;;;;;17.35;4.75;;;;;;;9.88;100.00;101764.06;5103372;28;20066;-68
2023/02/18 10:01:23;;;;;;;15.40;4.10;;;;;;;9.89;100.00;101768.47;5068936;28;20103;-67
2023/02/18 10:03:51;;;;;;;16.85;4.20;;;;;;;9.90;100.00;101767.38;5105822;28;20052;-67
2023/02/18 10:06:29;;;;;;;17.08;4.72;;;;;;;9.91;100.00;101760.88;5093486;28;20096;-68
2023/02/18 10:09:01;;;;;;;18.10;4.35;;;;;;;9.92;100.00;101770.69;5115573;28;20479;-68
2023/02/18 10:11:37;;;;;;;14.52;3.63;;;;;;;9.94;100.00;101763.13;5100288;28;20047;-68
2023/02/18 10:14:08;;;;;;;;;;;;;;;9.93;100.00;101769.63;5115062;28;20044;-68
2023/02/18 10:16:35;;;;;;;16.15;3.97;;;;;;;9.94;100.00;101779.47;5084261;27;19920;-69
2023/02/18 10:19:22;;;;;;;14.38;4.30;;;;;;;9.95;100.00;101778.38;5096588;28;20083;-69
2023/02/18 10:21:51;;;;;;;18.45;4.13;;;;;;;9.95;100.00;101786.56;5097316;27;20381;-71
2023/02/18 10:24:29;;;;;;;13.40;4.45;;;;;;;9.94;100.00;101782.19;5107978;27;20047;-69
2023/02/18 10:26:57;;;;;;;17.00;3.65;;;;;;;9.95;100.00;101797.44;5105204;28;20127;-69
2023/02/18 10:29:26;;;;;;;14.35;3.85;;;;;;;9.95;100.00;101792.81;5111356;28;20470;-70
2023/02/18 10:32:11;;;;;;;16.33;4.65;;;;;;;9.95;100.00;101800.97;5116988;28;20047;-68
2023/02/18 10:35:04;;;;;;;12.55;3.75;;;;;;;9.93;100.00;101803.16;5109575;27;20059;-68
2023/02/18 10:37:41;;;;;;;12.70;3.80;;;;;;;9.93;100.00;101821.34;5114531;27;20062;-66
2023/02/18 10:40:10;;;;;;;16.42;4.20;;;;;;;9.90;100.00;101822.66;5114487;28;20071;-68
2023/02/18 10:43:16;;;;;;;12.90;4.00;;;;;;;9.90;100.00;101805.50;5113442;28;20066;-70
2023/02/18 10:46:11;;;;;;;12.32;3.80;;;;;;;9.89;100.00;101814.75;5105833;28;20047;-68
2023/02/18 10:49:01;;;;;;;14.93;3.92;;;;;;;9.88;100.00;101822.06;5109829;28;20051;-69
2023/02/18 10:51:32;;;;;;;17.08;4.13;;;;;;;9.88;100.00;101804.91;5114571;28;20089;-68
2023/02/18 10:54:00;;;;;;;14.27;3.60;;;;;;;9.89;100.00;101809.31;5077753;28;20143;-69
2023/02/18 10:56:42;;;;;;;13.45;3.72;;;;;;;9.89;100.00;101821.00;5097347;28;20051;-68
2023/02/18 10:59:13;;;;;;;14.95;4.43;;;;;;;9.90;100.00;101822.66;5095393;28;20384;-69
2023/02/18 11:01:43;;;;;;;14.20;4.03;;;;;;;9.89;100.00;101826.47;5078140;28;20105;-68
2023/02/18 11:04:18;;;;;;;14.27;4.05;;;;;;;9.85;100.00;101816.28;5108948;27;20112;-70
2023/02/18 11:06:48;;;;;;;14.90;3.97;;;;;;;9.85;100.00;101819.00;5095542;28;20101;-69
2023/02/18 11:09:27;;;;;;;12.23;3.30;;;;;;;9.84;100.00;101817.31;5077927;28;20048;-70
2023/02/18 11:12:01;;;;;;;12.63;3.60;;;;;;;9.82;100.00;101821.13;5096443;28;20092;-70
2023/02/18 11:15:04;;;;;;;13.55;3.67;;;;;;;9.80;100.00;101828.69;5114494;28;20055;-69
2023/02/18 11:17:33;;;;;;;11.20;3.65;;;;;;;9.82;100.00;101823.84;5088519;28;20135;-69
2023/02/18 11:20:12;;;;;;;10.45;3.75;;;;;;;9.84;100.00;101828.22;5094369;28;20055;-69
2023/02/18 11:22:40;;;;;;;12.02;3.50;;;;;;;9.82;100.00;101826.56;5097702;27;20044;-71
2023/02/18 11:25:31;;;;;;;12.25;4.07;;;;;;;9.85;100.00;101829.88;5102354;28;20044;-69
2023/02/18 11:28:05;;;;;;;11.27;3.80;;;;;;;9.85;100.00;101829.88;5097840;28;20127;-69
2023/02/18 11:30:34;;;;;;;15.15;4.07;;;;;;;9.85;100.00;101835.34;5114743;28;20050;-69
2023/02/18 11:33:07;;;;;;;11.32;3.38;;;;;;;9.84;100.00;101828.22;5114010;27;20043;-68